createdAt,value
2023-05-03T00:00:27.387Z,101172.41
2023-05-03T00:02:57.590Z,101164.31
2023-05-03T00:05:28.226Z,101168.16
2023-05-03T00:07:57.207Z,101167.13
2023-05-03T00:10:27.235Z,101169.09
2023-05-03T00:12:56.881Z,101171.63
2023-05-03T00:15:25.637Z,101168.41
2023-05-03T00:17:54.176Z,101173.38
2023-05-03T00:20:22.729Z,101176.03
2023-05-03T00:22:51.093Z,101167.22
2023-05-03T00:25:19.709Z,101164.00
2023-05-03T00:27:49.495Z,101161.28
2023-05-03T00:30:19.167Z,101160.44
2023-05-03T00:32:47.725Z,101161.81
2023-05-03T00:35:16.136Z,101163.84
2023-05-03T00:37:44.536Z,101168.75
2023-05-03T00:40:16.557Z,101165.84
2023-05-03T00:42:44.883Z,101162.00
2023-05-03T00:45:14.751Z,101146.34
2023-05-03T00:47:43.638Z,101147.56
2023-05-03T00:50:12.743Z,101142.53
2023-05-03T00:52:41.953Z,101133.34
2023-05-03T00:55:11.667Z,101138.34
2023-05-03T00:57:40.122Z,101124.69
2023-05-03T01:00:10.944Z,101120.88
2023-05-03T01:02:41.966Z,101127.28
2023-05-03T01:05:11.253Z,101127.56
2023-05-03T01:07:48.920Z,101130.56
2023-05-03T01:10:24.463Z,101125.34
2023-05-03T01:13:00.905Z,101127.19
2023-05-03T01:15:45.637Z,101123.50
2023-05-03T01:18:20.122Z,101129.25
2023-05-03T01:20:50.359Z,101121.50
2023-05-03T01:23:34.255Z,101116.75
2023-05-03T01:26:16.618Z,101070.19
2023-05-03T01:28:45.149Z,101107.72
2023-05-03T01:31:18.034Z,101121.84
2023-05-03T01:33:55.006Z,101118.59
2023-05-03T01:36:28.183Z,101094.41
2023-05-03T01:38:56.718Z,101117.81
2023-05-03T01:41:29.202Z,101116.13
2023-05-03T01:43:58.713Z,101121.56
2023-05-03T01:46:27.211Z,101118.88
2023-05-03T01:48:55.685Z,101119.88
2023-05-03T01:51:24.131Z,101117.81
2023-05-03T01:53:52.590Z,101116.44
2023-05-03T01:56:21.718Z,101118.59
2023-05-03T01:58:51.648Z,101111.06
2023-05-03T02:01:20.209Z,101104.69
2023-05-03T02:03:48.690Z,101108.91
2023-05-03T02:06:18.345Z,101114.13
2023-05-03T02:08:46.777Z,101115.03
2023-05-03T02:11:15.209Z,101119.44
2023-05-03T02:13:43.607Z,101124.50
2023-05-03T02:16:13.559Z,101122.50
2023-05-03T02:18:41.965Z,101119.81
2023-05-03T02:21:10.750Z,101128.88
2023-05-03T02:23:39.207Z,101127.34
2023-05-03T02:26:08.940Z,101129.66
2023-05-03T02:28:37.319Z,101124.97
2023-05-03T02:31:06.772Z,101126.34
2023-05-03T02:33:36.768Z,101129.03
2023-05-03T02:36:05.707Z,101134.72
2023-05-03T02:38:35.190Z,101129.66
2023-05-03T02:41:03.730Z,101132.19
2023-05-03T02:43:32.514Z,101127.50
2023-05-03T02:46:01.978Z,101124.66
2023-05-03T02:48:30.617Z,101125.13
2023-05-03T02:51:00.524Z,101114.50
2023-05-03T02:53:29.005Z,101123.25
2023-05-03T02:56:02.054Z,101123.25
2023-05-03T02:58:31.158Z,101119.88
2023-05-03T03:01:00.978Z,101128.72
2023-05-03T03:03:31.748Z,101127.63
2023-05-03T03:06:02.106Z,101127.41
2023-05-03T03:08:30.831Z,101122.56
2023-05-03T03:11:02.825Z,101115.91
2023-05-03T03:13:31.485Z,101122.31
2023-05-03T03:16:00.660Z,101117.13
2023-05-03T03:18:29.074Z,101126.88
2023-05-03T03:20:57.426Z,101127.56
2023-05-03T03:23:27.329Z,101123.03
2023-05-03T03:25:55.800Z,101122.34
2023-05-03T03:28:24.252Z,101123.09
2023-05-03T03:30:53.270Z,101117.97
2023-05-03T03:33:25.955Z,101116.03
2023-05-03T03:35:59.295Z,101109.13
2023-05-03T03:38:33.755Z,101119.72
2023-05-03T03:41:06.126Z,101117.97
2023-05-03T03:43:34.781Z,101122.09
2023-05-03T03:46:06.595Z,101124.19
2023-05-03T03:48:35.554Z,101116.50
2023-05-03T03:51:03.952Z,101135.69
2023-05-03T03:53:40.282Z,101132.47
2023-05-03T03:56:09.660Z,101121.19
2023-05-03T03:58:37.980Z,101128.25
2023-05-03T04:01:09.439Z,101128.94
2023-05-03T04:03:38.290Z,101135.22
2023-05-03T04:06:07.342Z,101122.72
2023-05-03T04:08:35.901Z,101136.41
2023-05-03T04:11:10.826Z,101132.97
2023-05-03T04:13:42.433Z,101130.63
2023-05-03T04:16:11.555Z,101133.53
2023-05-03T04:18:39.965Z,101136.75
2023-05-03T04:21:10.127Z,101129.53
2023-05-03T04:23:39.596Z,101123.88
2023-05-03T04:26:20.313Z,101130.94
2023-05-03T04:28:56.853Z,101136.59
2023-05-03T04:31:27.141Z,101138.44
2023-05-03T04:33:56.835Z,101132.38
2023-05-03T04:36:30.068Z,101137.44
2023-05-03T04:39:00.360Z,101142.13
2023-05-03T04:41:30.698Z,101140.00
2023-05-03T04:43:59.364Z,101144.97
2023-05-03T04:46:28.079Z,101133.53
2023-05-03T04:48:57.718Z,101139.06
2023-05-03T04:51:28.424Z,101143.44
2023-05-03T04:53:59.837Z,101142.59
2023-05-03T04:56:29.703Z,101146.81
2023-05-03T04:59:09.479Z,101144.81
2023-05-03T05:01:39.962Z,101148.88
2023-05-03T05:04:09.743Z,101150.97
2023-05-03T05:06:45.869Z,101154.34
2023-05-03T05:09:23.669Z,101163.91
2023-05-03T05:11:57.085Z,101163.59
2023-05-03T05:14:31.918Z,101165.50
2023-05-03T05:17:00.580Z,101163.03
2023-05-03T05:19:29.037Z,101129.50
2023-05-03T05:21:58.357Z,101161.22
2023-05-03T05:24:33.322Z,101174.34
2023-05-03T05:27:01.943Z,101168.34
2023-05-03T05:29:32.719Z,101174.09
2023-05-03T05:32:04.441Z,101158.34
2023-05-03T05:34:43.704Z,101166.44
2023-05-03T05:37:17.358Z,101161.47
2023-05-03T05:39:47.245Z,101166.31
2023-05-03T05:42:17.398Z,101119.47
2023-05-03T05:44:48.085Z,101181.59
2023-05-03T05:47:16.745Z,101183.47
2023-05-03T05:49:46.692Z,101179.31
2023-05-03T05:52:15.797Z,101177.81
2023-05-03T05:54:44.393Z,101178.78
2023-05-03T05:57:14.128Z,101183.84
2023-05-03T05:59:43.199Z,101179.16
2023-05-03T06:02:17.028Z,101190.09
2023-05-03T06:04:47.656Z,101190.78
2023-05-03T06:07:16.268Z,101200.59
2023-05-03T06:09:44.723Z,101198.56
2023-05-03T06:12:14.186Z,101202.59
2023-05-03T06:15:00.936Z,101202.38
2023-05-03T06:17:33.423Z,101203.06
2023-05-03T06:20:02.179Z,101198.78
2023-05-03T06:22:30.788Z,101199.78
2023-05-03T06:25:01.284Z,101193.00
2023-05-03T06:27:29.710Z,101196.91
2023-05-03T06:29:58.781Z,101200.22
2023-05-03T06:32:27.585Z,101196.78
2023-05-03T06:34:59.585Z,101192.66
2023-05-03T06:37:28.146Z,101198.06
2023-05-03T06:39:56.531Z,101201.94
2023-05-03T06:42:24.966Z,101197.41
2023-05-03T06:45:06.207Z,101199.94
2023-05-03T06:47:34.698Z,101206.19
2023-05-03T06:50:05.040Z,101218.88
2023-05-03T06:52:33.747Z,101212.28
2023-05-03T06:55:02.151Z,101223.16
2023-05-03T06:57:30.484Z,101227.47
2023-05-03T06:59:59.009Z,101218.34
2023-05-03T07:02:27.876Z,101219.31
2023-05-03T07:04:56.326Z,101224.19
2023-05-03T07:07:26.162Z,101215.47
2023-05-03T07:09:54.507Z,101221.75
2023-05-03T07:12:27.725Z,101229.09
2023-05-03T07:14:56.764Z,101229.78
2023-05-03T07:17:25.648Z,101228.03
2023-05-03T07:19:55.684Z,101226.13
2023-05-03T07:22:25.987Z,101221.19
2023-05-03T07:24:55.106Z,101213.03
2023-05-03T07:27:23.584Z,101215.69
2023-05-03T07:29:52.341Z,101213.03
2023-05-03T07:32:21.942Z,101214.25
2023-05-03T07:34:50.637Z,101216.91
2023-05-03T07:37:19.027Z,101213.09
2023-05-03T07:39:49.326Z,101199.22
2023-05-03T07:42:17.780Z,101200.66
2023-05-03T07:44:46.210Z,101214.44
2023-05-03T07:47:14.865Z,101209.50
2023-05-03T07:49:43.334Z,101210.06
2023-05-03T07:52:11.755Z,101205.38
2023-05-03T07:54:40.480Z,101204.28
2023-05-03T07:57:10.238Z,101202.78
2023-05-03T07:59:38.869Z,101205.13
2023-05-03T08:02:07.698Z,101216.69
2023-05-03T08:04:36.473Z,101218.53
2023-05-03T08:07:05.317Z,101211.50
2023-05-03T08:09:33.692Z,101213.00
2023-05-03T08:12:03.301Z,101206.41
2023-05-03T08:14:33.900Z,101219.50
2023-05-03T08:17:02.292Z,101220.97
2023-05-03T08:19:30.719Z,101224.91
2023-05-03T08:21:59.182Z,101214.53
2023-05-03T08:24:27.963Z,101213.72
2023-05-03T08:26:56.819Z,101222.06
2023-05-03T08:29:27.034Z,101212.81
2023-05-03T08:31:58.648Z,101216.63
2023-05-03T08:34:27.348Z,101223.31
2023-05-03T08:36:56.125Z,101221.63
2023-05-03T08:39:26.946Z,101212.56
2023-05-03T08:41:55.539Z,101220.34
2023-05-03T08:44:25.967Z,101219.53
2023-05-03T08:46:54.913Z,101217.22
2023-05-03T08:49:26.333Z,101195.53
2023-05-03T08:51:56.936Z,101228.81
2023-05-03T08:54:25.601Z,101225.41
2023-05-03T08:56:54.101Z,101225.78
2023-05-03T08:59:22.610Z,101224.47
2023-05-03T09:01:52.347Z,101223.97
2023-05-03T09:04:22.229Z,101232.31
2023-05-03T09:06:53.608Z,101224.63
2023-05-03T09:09:33.095Z,101224.75
2023-05-03T09:12:01.780Z,101219.84
2023-05-03T09:14:30.135Z,101226.22
2023-05-03T09:17:15.952Z,101226.75
2023-05-03T09:20:02.460Z,101229.53
2023-05-03T09:22:35.131Z,101233.06
2023-05-03T09:25:04.234Z,101235.25
2023-05-03T09:27:32.706Z,101228.78
2023-05-03T09:30:19.384Z,101217.31
2023-05-03T09:32:51.215Z,101223.44
2023-05-03T09:35:19.724Z,101222.44
2023-05-03T09:37:49.439Z,101230.69
2023-05-03T09:40:18.971Z,101225.50
2023-05-03T09:43:11.575Z,101222.06
2023-05-03T09:45:40.647Z,101220.03
2023-05-03T09:48:10.137Z,101221.59
2023-05-03T09:50:38.971Z,101231.34
2023-05-03T09:53:09.088Z,101229.13
2023-05-03T09:55:38.730Z,101232.22
2023-05-03T09:58:08.320Z,101232.34
2023-05-03T10:00:40.632Z,101230.56
2023-05-03T10:03:11.576Z,101237.72
2023-05-03T10:05:47.466Z,101235.88
2023-05-03T10:08:24.443Z,101242.56
2023-05-03T10:10:54.586Z,101232.66
2023-05-03T10:13:23.933Z,101228.63
2023-05-03T10:15:57.671Z,101229.69
2023-05-03T10:18:31.142Z,101197.63
2023-05-03T10:21:04.868Z,101228.25
2023-05-03T10:23:34.659Z,101242.13
2023-05-03T10:26:17.873Z,101242.56
2023-05-03T10:28:46.967Z,101209.81
2023-05-03T10:31:47.032Z,101239.56
2023-05-03T10:34:23.223Z,101236.69
2023-05-03T10:36:54.266Z,101238.34
2023-05-03T10:39:24.509Z,101245.50
2023-05-03T10:42:00.515Z,101243.22
2023-05-03T10:44:30.725Z,101244.78
2023-05-03T10:46:59.116Z,101246.56
2023-05-03T10:49:28.509Z,101240.47
2023-05-03T10:51:58.691Z,101236.56
2023-05-03T10:54:29.706Z,101232.38
2023-05-03T10:56:58.549Z,101226.53
2023-05-03T10:59:27.265Z,101230.34
2023-05-03T11:01:56.158Z,101225.72
2023-05-03T11:04:34.075Z,101229.88
2023-05-03T11:07:02.881Z,101231.53
2023-05-03T11:09:36.031Z,101221.22
2023-05-03T11:12:08.830Z,101228.50
2023-05-03T11:14:39.798Z,101227.63
2023-05-03T11:17:10.636Z,101234.41
2023-05-03T11:19:39.915Z,101226.81
2023-05-03T11:22:08.325Z,101232.50
2023-05-03T11:24:38.395Z,101226.31
2023-05-03T11:27:08.331Z,101213.53
2023-05-03T11:29:38.114Z,101218.50
2023-05-03T11:32:10.835Z,101226.72
2023-05-03T11:34:40.871Z,101227.78
2023-05-03T11:37:11.085Z,101216.22
2023-05-03T11:39:43.233Z,101220.28
2023-05-03T11:42:11.772Z,101216.22
2023-05-03T11:44:40.352Z,101209.06
2023-05-03T11:47:09.346Z,101224.09
2023-05-03T11:49:37.938Z,101214.19
2023-05-03T11:52:06.519Z,101221.00
2023-05-03T11:54:34.951Z,101225.81
2023-05-03T11:57:14.476Z,101219.59
2023-05-03T11:59:43.640Z,101219.34
2023-05-03T12:02:14.615Z,101175.34
2023-05-03T12:04:45.457Z,101191.31
2023-05-03T12:07:18.784Z,101231.16
2023-05-03T12:10:05.744Z,101225.81
2023-05-03T12:12:42.573Z,101235.53
2023-05-03T12:15:16.239Z,101229.69
2023-05-03T12:17:49.410Z,101223.25
2023-05-03T12:22:56.617Z,101195.59
2023-05-03T12:25:29.002Z,101229.00
2023-05-03T12:30:37.970Z,101226.59
2023-05-03T12:33:10.166Z,101214.31
2023-05-03T12:35:40.855Z,101214.00
2023-05-03T12:38:10.385Z,101217.66
2023-05-03T12:40:41.057Z,101217.19
2023-05-03T12:43:11.018Z,101227.66
2023-05-03T12:45:40.781Z,101225.16
2023-05-03T12:48:10.096Z,101217.28
2023-05-03T12:50:39.670Z,101225.75
2023-05-03T12:53:10.349Z,101218.13
2023-05-03T12:55:42.682Z,101224.69
2023-05-03T12:58:43.181Z,101227.34
2023-05-03T13:01:37.865Z,101224.81
2023-05-03T13:04:00.697Z,101228.13
2023-05-03T13:06:43.113Z,101233.75
2023-05-03T13:09:19.216Z,101227.19
2023-05-03T13:11:50.453Z,101224.44
2023-05-03T13:14:20.480Z,101232.19
2023-05-03T13:16:49.850Z,101223.53
2023-05-03T13:19:18.826Z,101218.25
2023-05-03T13:21:48.966Z,101226.34
2023-05-03T13:24:17.626Z,101241.28
2023-05-03T13:26:46.597Z,101231.72
2023-05-03T13:29:15.120Z,101236.25
2023-05-03T13:31:44.920Z,101238.63
2023-05-03T13:34:13.482Z,101240.41
2023-05-03T13:36:41.918Z,101237.09
2023-05-03T13:39:10.614Z,101240.75
2023-05-03T13:41:41.036Z,101230.31
2023-05-03T13:44:09.971Z,101238.75
2023-05-03T13:46:39.328Z,101232.91
2023-05-03T13:49:09.729Z,101240.78
2023-05-03T13:51:38.674Z,101232.28
2023-05-03T13:54:08.129Z,101233.38
2023-05-03T13:56:36.956Z,101228.25
2023-05-03T13:59:08.637Z,101229.56
2023-05-03T14:01:37.524Z,101218.78
2023-05-03T14:04:06.115Z,101230.88
2023-05-03T14:06:37.056Z,101222.22
2023-05-03T14:09:08.160Z,101223.50
2023-05-03T14:11:36.466Z,101221.69
2023-05-03T14:14:04.916Z,101230.13
2023-05-03T14:16:40.982Z,101221.31
2023-05-03T14:19:11.636Z,101219.41
2023-05-03T14:21:43.117Z,101217.59
2023-05-03T14:24:11.692Z,101217.28
2023-05-03T14:26:40.158Z,101225.50
2023-05-03T14:29:08.638Z,101230.81
2023-05-03T14:31:37.105Z,101222.53
2023-05-03T14:34:05.619Z,101221.75
2023-05-03T14:36:36.446Z,101219.34
2023-05-03T14:39:07.256Z,101224.53
2023-05-03T14:41:36.359Z,101213.06
2023-05-03T14:44:04.856Z,101224.41
2023-05-03T14:46:34.309Z,101228.41
2023-05-03T14:49:02.821Z,101230.16
2023-05-03T14:51:32.542Z,101219.38
2023-05-03T14:54:01.847Z,101215.28
2023-05-03T14:56:33.053Z,101210.81
2023-05-03T14:59:02.260Z,101227.03
2023-05-03T15:01:30.709Z,101218.84
2023-05-03T15:03:59.324Z,101217.84
2023-05-03T15:06:28.862Z,101220.34
2023-05-03T15:08:59.586Z,101213.44
2023-05-03T15:11:28.795Z,101189.47
2023-05-03T15:13:58.738Z,101211.69
2023-05-03T15:16:27.830Z,101214.94
2023-05-03T15:18:56.314Z,101217.91
2023-05-03T15:21:24.939Z,101216.34
2023-05-03T15:23:54.051Z,101218.09
2023-05-03T15:26:24.572Z,101217.97
2023-05-03T15:28:53.343Z,101217.78
2023-05-03T15:31:23.605Z,101219.09
2023-05-03T15:33:52.096Z,101221.66
2023-05-03T15:36:20.686Z,101217.88
2023-05-03T15:38:50.455Z,101216.28
2023-05-03T15:41:18.906Z,101219.03
2023-05-03T15:43:47.466Z,101224.91
2023-05-03T15:46:16.160Z,101226.97
2023-05-03T15:48:46.144Z,101230.78
2023-05-03T15:51:14.654Z,101232.31
2023-05-03T15:53:43.763Z,101238.66
2023-05-03T15:56:12.655Z,101230.94
2023-05-03T15:58:41.190Z,101225.72
2023-05-03T16:01:09.717Z,101223.88
2023-05-03T16:03:38.292Z,101239.63
2023-05-03T16:06:08.615Z,101231.25
2023-05-03T16:08:37.052Z,101243.81
2023-05-03T16:11:05.430Z,101246.13
2023-05-03T16:13:33.838Z,101238.78
2023-05-03T16:16:03.284Z,101238.59
2023-05-03T16:18:32.065Z,101242.63
2023-05-03T16:21:01.592Z,101238.22
2023-05-03T16:23:31.406Z,101242.84
2023-05-03T16:25:59.839Z,101243.06
2023-05-03T16:28:28.198Z,101244.53
2023-05-03T16:30:56.791Z,101241.38
2023-05-03T16:33:25.151Z,101236.38
2023-05-03T16:35:53.545Z,101253.97
2023-05-03T16:38:21.894Z,101247.47
2023-05-03T16:40:51.686Z,101253.16
2023-05-03T16:43:20.169Z,101244.75
2023-05-03T16:45:57.522Z,101243.91
2023-05-03T16:48:26.420Z,101244.31
2023-05-03T16:50:54.841Z,101249.59
2023-05-03T16:53:23.363Z,101251.84
2023-05-03T16:55:53.504Z,101253.31
2023-05-03T16:58:21.986Z,101258.13
2023-05-03T17:00:50.396Z,101253.75
2023-05-03T17:03:19.035Z,101256.47
2023-05-03T17:05:47.570Z,101255.66
2023-05-03T17:08:15.953Z,101251.44
2023-05-03T17:10:45.402Z,101248.88
2023-05-03T17:13:16.519Z,101260.16
2023-05-03T17:15:45.330Z,101260.78
2023-05-03T17:18:13.905Z,101253.22
2023-05-03T17:20:43.121Z,101254.66
2023-05-03T17:23:11.422Z,101257.56
2023-05-03T17:25:39.904Z,101262.16
2023-05-03T17:28:08.678Z,101254.16
2023-05-03T17:30:39.378Z,101255.78
2023-05-03T17:33:08.020Z,101254.91
2023-05-03T17:35:37.446Z,101264.03
2023-05-03T17:38:06.171Z,101264.63
2023-05-03T17:40:35.253Z,101268.19
2023-05-03T17:43:03.801Z,101265.59
2023-05-03T17:45:33.073Z,101270.16
2023-05-03T17:48:04.024Z,101270.09
2023-05-03T17:50:32.437Z,101285.47
2023-05-03T17:53:01.114Z,101278.75
2023-05-03T17:55:29.711Z,101279.16
2023-05-03T17:57:58.032Z,101279.28
2023-05-03T18:00:28.105Z,101279.06
2023-05-03T18:02:58.767Z,101287.16
2023-05-03T18:05:28.875Z,101281.63
2023-05-03T18:07:57.312Z,101272.38
2023-05-03T18:10:25.713Z,101279.63
2023-05-03T18:12:55.138Z,101278.72
2023-05-03T18:15:23.843Z,101279.50
2023-05-03T18:17:53.056Z,101271.44
2023-05-03T18:20:21.738Z,101280.22
2023-05-03T18:22:51.516Z,101285.94
2023-05-03T18:25:19.958Z,101288.38
2023-05-03T18:27:48.339Z,101286.25
2023-05-03T18:30:17.326Z,101292.47
2023-05-03T18:32:45.824Z,101290.50
2023-05-03T18:35:14.280Z,101285.53
2023-05-03T18:37:42.656Z,101284.06
2023-05-03T18:40:13.422Z,101296.13
2023-05-03T18:42:41.861Z,101302.03
2023-05-03T18:45:10.628Z,101300.03
2023-05-03T18:47:39.064Z,101295.38
2023-05-03T18:50:08.640Z,101291.09
2023-05-03T18:52:37.374Z,101299.66
2023-05-03T18:55:06.535Z,101294.41
2023-05-03T18:57:37.170Z,101305.44
2023-05-03T19:00:06.725Z,101299.78
2023-05-03T19:02:35.230Z,101300.25
2023-05-03T19:05:03.625Z,101309.19
2023-05-03T19:07:32.310Z,101313.84
2023-05-03T19:10:01.386Z,101312.59
2023-05-03T19:12:30.052Z,101315.59
2023-05-03T19:14:59.850Z,101318.69
2023-05-03T19:17:28.332Z,101314.38
2023-05-03T19:19:56.758Z,101328.25
2023-05-03T19:22:25.150Z,101330.50
2023-05-03T19:24:53.519Z,101333.06
2023-05-03T19:27:21.940Z,101338.00
2023-05-03T19:29:50.441Z,101345.22
2023-05-03T19:32:20.272Z,101343.56
2023-05-03T19:34:48.654Z,101347.59
2023-05-03T19:37:17.229Z,101343.88
2023-05-03T19:39:45.826Z,101348.06
2023-05-03T19:42:14.269Z,101361.72
2023-05-03T19:44:42.671Z,101364.41
2023-05-03T19:47:11.090Z,101367.94
2023-05-03T19:49:41.884Z,101367.41
2023-05-03T19:52:11.349Z,101373.28
2023-05-03T19:54:39.701Z,101373.19
2023-05-03T19:57:08.436Z,101372.16
2023-05-03T19:59:36.884Z,101381.03
2023-05-03T20:02:05.408Z,101383.03
2023-05-03T20:04:34.004Z,101381.59
2023-05-03T20:07:04.047Z,101363.47
2023-05-03T20:09:32.494Z,101381.16
2023-05-03T20:12:02.269Z,101391.03
2023-05-03T20:14:32.535Z,101392.69
2023-05-03T20:17:01.599Z,101397.75
2023-05-03T20:19:30.009Z,101392.16
2023-05-03T20:21:58.500Z,101405.00
2023-05-03T20:24:28.319Z,101399.53
2023-05-03T20:26:56.761Z,101403.13
2023-05-03T20:29:25.200Z,101401.09
2023-05-03T20:31:54.038Z,101407.63
2023-05-03T20:34:22.462Z,101403.84
2023-05-03T20:36:50.866Z,101401.22
2023-05-03T20:39:19.219Z,101412.91
2023-05-03T20:41:48.977Z,101413.09
2023-05-03T20:44:17.376Z,101409.31
2023-05-03T20:46:45.805Z,101417.69
2023-05-03T20:49:14.551Z,101417.84
2023-05-03T20:51:42.980Z,101411.06
2023-05-03T20:54:12.354Z,101412.50
2023-05-03T20:56:40.707Z,101412.41
2023-05-03T20:59:10.497Z,101416.38
2023-05-03T21:01:41.202Z,101417.13
2023-05-03T21:04:09.688Z,101417.13
2023-05-03T21:06:38.412Z,101415.31
2023-05-03T21:09:07.031Z,101424.50
2023-05-03T21:11:35.513Z,101424.00
2023-05-03T21:14:04.176Z,101419.47
2023-05-03T21:16:34.044Z,101419.06
2023-05-03T21:19:03.950Z,101419.91
2023-05-03T21:21:33.550Z,101419.06
2023-05-03T21:24:02.501Z,101414.13
2023-05-03T21:26:32.604Z,101419.06
2023-05-03T21:29:01.669Z,101416.44
2023-05-03T21:31:30.368Z,101422.22
2023-05-03T21:34:00.295Z,101424.22
2023-05-03T21:36:28.927Z,101421.25
2023-05-03T21:38:58.058Z,101415.44
2023-05-03T21:41:26.395Z,101424.09
2023-05-03T21:43:54.775Z,101426.50
2023-05-03T21:46:23.215Z,101417.44
2023-05-03T21:48:51.665Z,101415.31
2023-05-03T21:51:22.128Z,101417.34
2023-05-03T21:53:51.546Z,101414.34
2023-05-03T21:56:19.974Z,101412.22
2023-05-03T21:58:49.948Z,101414.47
2023-05-03T22:01:20.252Z,101405.03
2023-05-03T22:03:49.712Z,101400.88
2023-05-03T22:06:18.236Z,101404.16
2023-05-03T22:08:48.028Z,101412.03
2023-05-03T22:11:16.365Z,101414.84
2023-05-03T22:14:03.090Z,101410.34
2023-05-03T22:16:33.566Z,101415.69
2023-05-03T22:19:03.180Z,101425.28
2023-05-03T22:21:31.820Z,101417.66
2023-05-03T22:24:01.713Z,101416.66
2023-05-03T22:26:30.170Z,101421.16
2023-05-03T22:28:58.528Z,101411.69
2023-05-03T22:31:27.670Z,101421.81
2023-05-03T22:33:56.108Z,101421.97
2023-05-03T22:36:24.574Z,101430.53
2023-05-03T22:38:55.433Z,101424.75
2023-05-03T22:41:25.368Z,101427.84
2023-05-03T22:43:53.800Z,101402.78
2023-05-03T22:46:22.273Z,101425.25
2023-05-03T22:48:50.808Z,101425.38
2023-05-03T22:51:19.382Z,101431.00
2023-05-03T22:53:47.933Z,101425.63
2023-05-03T22:56:16.453Z,101433.94
2023-05-03T22:58:47.742Z,101432.09
2023-05-03T23:01:16.234Z,101433.94
2023-05-03T23:03:44.845Z,101428.72
2023-05-03T23:06:13.952Z,101430.00
2023-05-03T23:08:42.269Z,101425.16
2023-05-03T23:11:10.872Z,101424.72
2023-05-03T23:13:39.494Z,101422.44
2023-05-03T23:16:10.503Z,101414.66
2023-05-03T23:18:39.537Z,101425.63
2023-05-03T23:21:07.967Z,101420.69
2023-05-03T23:23:36.409Z,101437.72
2023-05-03T23:26:04.955Z,101441.50
2023-05-03T23:28:33.977Z,101442.75
2023-05-03T23:31:02.769Z,101442.69
2023-05-03T23:33:33.250Z,101444.38
2023-05-03T23:36:01.662Z,101441.09
2023-05-03T23:38:30.033Z,101444.75
2023-05-03T23:40:58.416Z,101441.63
2023-05-03T23:43:27.178Z,101442.25
2023-05-03T23:45:55.732Z,101447.00
2023-05-03T23:48:24.227Z,101443.16
2023-05-03T23:50:54.977Z,101446.06
2023-05-03T23:53:23.378Z,101447.31
2023-05-03T23:55:51.709Z,101451.09
2023-05-03T23:58:20.191Z,101447.84
